Ridgedale, MO

1:45 AM CDT on July 02, 2015 (GMT -0500)
Branson | | Change Station
CLOSE
Current Station
Airport
Location: Branson,
Elevation: 1302 ft
Nearby Weather Stations
Active Advisory: Severe Thunderstorm Watch

Elev 1302 ft 36.53 °N, 93.20 °W | Updated 10 minutes ago

Clear
Clear
79 °F
Feels Like 79 °F
N
7
Wind Variable Wind from SW
Gusts 21 mph

Today
High -- | Low -- °F
--% Chance of Precip.
Yesterday
High -- | Low -- °F
Precip. -- in
5:58 AM 8:34 PM
Full, 100% visible
Pressure 29.85 in
Visibility 10.0 miles
Clouds Clear
Dew Point 68 °F
Humidity 69%
Rainfall 0.00 in
Snow Depth Not available.
UV 0 out of 12
Pollen .50 out of 12
Air Quality Not available.
Flu Activity Not available.
METAR KBBG 020635Z AUTO 23006G18KT 10SM CLR 26/20 A2985 RMK AO2 LTG DSNT N AND NE

More Conditions Fewer Conditions

Pressure 29.85 in
Visibility 10.0 miles
Clouds Clear
Dew Point 68 °F
Humidity 69%
Rainfall 0.00 in
Snow Depth Not available.
UV 0 out of 12
Pollen .50 out of 12
Air Quality Not available.
Flu Activity Not available.
METAR KBBG 020635Z AUTO 23006G18KT 10SM CLR 26/20 A2985 RMK AO2 LTG DSNT N AND NE

More Conditions Fewer Conditions

10-Day Weather Forecast

×

Almanac

Astronomy

Jul. 02, 2015 Rise Set
Actual Time
Civil Twilight
Nautical Twilight
Astronomical Twilight
Moon
Length of Visible Light
Length of Day
Tomorrow will be .
, % of the Moon is Illuminated

Today's Extremes

State Highs State Lows

Community

WunderPhotos

Upload Photos

1,834,422 photos uploaded!

WunderBlogs® & News

Nearby

Air Quality

  Air Quality AQ Index Pollutant
Not available.

Snow Depth

Station Depth Elevation

Earthquake Activity

City Distance Mag. Time & Date
Minimum magnitude displayed is 2.5.

Coastal Water Temperatures

Place Temperature

Stations

Nearby Weather Stations

Station Location Temp. Windchill Dew Point Humidity Wind Precip. Elev Updated Type
                   
Severe Thunderstorm Watch
Statement as of 1:43 AM CDT on July 02, 2015

Severe Thunderstorm Watch 384 remains in effect until 400 am CDT

MO
. Missouri counties included are

Barry Barton Cedar
Christian Dade Dallas
Dent Douglas Greene
Hickory Howell Jasper
Laclede Lawrence McDonald
Newton Oregon Ozark
Polk St. Clair Shannon
stone Taney Texas
Vernon Webster Wright